Latest Coastal Weather Observations for Learmonth

IDW60701

Issued at 10:51 am WST Thursday 5 May 2016 (issued every 10 minutes, with the page automatically refreshed every 10 minutes)

About coastal observations | Map of coastal stations | Coastal observations for WA | Marine services | Other Formats
Station Details ID: 005007 Name: LEARMONTH AIRPORT Lat: -22.24 Lon: 114.10 Height: 5.0 m
Data from the previous 72 hours. | See also: Recent months at Learmonth
Date/Time
WST
Temp

°C
Wind Pressure Rain
since 9am
mm
Weather Cloud Vis
km
Sea
Height
m
Swell
Dir
 
Speed
knots
Gust
knots
hPa Trend Height
m
Period
s
Dir
05/10:30am 24.9 E 5 7 1011.9 - 0.0 - Mostly clear 10 - - - -
05/10:00am 24.8 ENE 5 6 1012.2 - 0.0 - Mostly clear 10 - - - -
05/09:30am 24.4 E 3 5 1012.2 - 0.0 - Mostly clear 10 - - - -
05/09:00am 24.1 SSE 1 3 1012.0 - 0.0 - Mostly clear 10 - - - -
05/08:30am 23.6 CALM 0 0 1012.1 - 0.0 - - 10 - - - -
05/08:00am 22.9 CALM 0 0 1011.7 - 0.0 - Mostly clear 10 - - - -
05/07:30am 21.7 CALM 0 0 1011.3 - 0.0 - Mostly clear 10 - - - -
05/07:00am 21.5 SW 3 4 1011.2 - 0.0 - Mostly clear 10 - - - -
05/06:30am 21.5 CALM 0 0 1010.8 - 0.0 - - 10 - - - -
05/06:00am 21.6 S 3 4 1009.9 - 0.0 - - 10 - - - -
05/05:30am 21.7 SSW 3 4 1010.0 - 0.0 - - 10 - - - -
05/05:00am 21.9 SSW 5 6 1009.8 - 0.0 - - 10 - - - -
05/04:30am 21.8 SW 3 4 1009.9 - 0.0 - - 10 - - - -
05/04:00am 21.8 SW 4 5 1010.1 - 0.0 - - 10 - - - -
05/03:30am 21.8 SSW 5 6 1010.0 - 0.0 - Partly cloudy 10 - - - -
05/03:00am 21.9 S 5 7 1010.0 - 0.0 - - 10 - - - -
05/02:30am 21.9 SSW 7 8 1010.4 - 0.0 - - 10 - - - -
05/02:00am 22.4 SW 4 5 1010.4 - 0.0 - - 10 - - - -
05/01:30am 22.8 CALM 0 3 1010.7 - 0.0 - - 10 - - - -
05/01:00am 23.1 SSE 3 5 1011.1 - 0.0 - - 10 - - - -
05/12:30am 23.5 CALM 0 0 1011.1 - 0.0 - - 10 - - - -
05/12:00am 23.7 CALM 0 0 1011.3 - 0.0 - Partly cloudy 10 - - - -
 
Date/Time
WST
Temp

°C
Wind Pressure Rain
since 9am
mm
Weather Cloud Vis
km
Sea
Height
m
Swell
Dir
 
Speed
knots
Gust
knots
hPa Trend Height
m
Period
s
Dir
04/11:30pm 23.7 WNW 1 4 1011.6 - 0.0 - Partly cloudy 10 - - - -
04/11:00pm 24.4 CALM 0 0 1011.8 - 0.0 - - 10 - - - -
04/10:30pm 24.6 NW 3 4 1011.9 - 0.0 - - 10 - - - -
04/10:00pm 24.4 N 4 5 1012.0 - 0.0 - - 10 - - - -
04/09:30pm 24.8 NNW 4 4 1011.8 - 0.0 - - 10 - - - -
04/09:00pm 24.9 NNW 4 5 1011.6 - 0.0 - Partly cloudy 10 - - - -
04/08:30pm 24.8 NW 4 4 1011.4 - 0.0 - - 10 - - - -
04/08:00pm 25.2 NW 3 4 1010.8 - 0.0 - - 10 - - - -
04/07:30pm 25.7 W 5 6 1010.8 - 0.0 - - 10 - - - -
04/07:00pm 26.0 WNW 7 9 1010.6 - 0.0 - Partly cloudy 10 - - - -
04/06:30pm 26.4 NW 7 9 1010.4 - 0.0 - Partly cloudy 10 - - - -
04/06:00pm 26.7 NW 7 9 1010.0 - 0.0 - - 10 - - - -
04/05:30pm 27.0 WNW 8 10 1009.9 - 0.0 - Partly cloudy 10 - - - -
04/05:00pm 27.3 NW 9 11 1009.4 - 0.0 - - 10 - - - -
04/04:30pm 27.0 NNE 9 12 1009.2 - 0.0 - Partly cloudy 10 - - - -
04/04:00pm 26.7 NNE 9 12 1009.2 - 0.0 - Partly cloudy 10 - - - -
04/03:30pm 27.2 NNE 11 14 1009.2 - 0.0 - Partly cloudy 10 - - - -
04/03:00pm 26.7 NE 10 13 1009.1 - 0.0 - Mostly clear 10 - - - -
04/02:30pm 27.2 NE 11 15 1009.3 - 0.0 - Mostly clear 10 - - - -
04/02:00pm 27.3 NNE 10 13 1009.3 - 0.0 - Mostly clear 10 - - - -
04/01:30pm 27.5 NNE 12 15 1009.4 - 0.0 - Mostly clear 10 - - - -
04/01:00pm 27.7 NNE 11 13 1009.9 - 0.0 - Partly cloudy 10 - - - -
04/12:30pm 27.6 NNE 10 13 1010.5 - 0.0 - Partly cloudy 10 - - - -
04/12:00pm 27.8 NNE 9 12 1010.8 - 0.0 - Partly cloudy 10 - - - -
04/11:30am 27.1 NNE 10 13 1011.0 - 0.0 - Partly cloudy 10 - - - -
04/11:00am 26.4 NNE 10 11 1011.3 - 0.0 - Partly cloudy 10 - - - -
04/10:30am 26.0 N 6 7 1012.1 - 0.0 - Partly cloudy 10 - - - -
04/10:00am 26.0 NNE 7 8 1012.4 - 0.0 - Partly cloudy 10 - - - -
04/09:30am 25.9 NE 4 5 1012.5 - 0.0 - Partly cloudy 10 - - - -
04/09:00am 25.3 NNE 2 4 1012.2 - 0.0 - Mostly clear 10 - - - -
04/08:30am 24.6 CALM 0 0 1012.1 - 0.0 - Partly cloudy 10 - - - -
04/08:00am 23.9 NW 1 3 1011.9 - 0.0 - Partly cloudy 10 - - - -
04/07:30am 22.9 E 4 5 1011.3 - 0.0 - Partly cloudy 10 - - - -
04/07:00am 22.1 SSW 4 5 1011.5 - 0.0 - Partly cloudy 10 - - - -
04/06:30am 22.2 SSW 5 5 1011.2 - 0.0 - Partly cloudy 10 - - - -
04/06:00am 22.5 S 5 7 1010.7 - 0.0 - Cloudy 10 - - - -
04/05:30am 22.9 SSE 5 7 1010.8 - 0.0 - Cloudy 10 - - - -
04/05:00am 22.4 SSE 2 5 1010.5 - 0.0 - Cloudy 10 - - - -
04/04:30am 21.8 S 4 5 1010.6 - 0.0 - Partly cloudy 10 - - - -
04/04:00am 22.3 CALM 0 0 1010.6 - 0.0 - Partly cloudy 10 - - - -
04/03:30am 22.6 CALM 0 0 1010.6 - 0.0 - - 10 - - - -
04/03:00am 22.5 W 1 3 1010.8 - 0.0 - Mostly clear 10 - - - -
04/02:58am 22.6 W 2 4 1010.9 - 0.0 - Partly cloudy 10 - - - -
04/02:41am 22.4 NW 3 4 1011.3 - 0.0 - Partly cloudy 8 - - - -
04/02:30am 22.3 N 4 5 1011.4 - 0.0 - - 10 - - - -
04/02:00am 22.6 CALM 0 0 1011.5 - 0.0 - - 10 - - - -
04/01:30am 23.0 CALM 0 0 1011.7 - 0.0 - - 10 - - - -
04/01:00am 23.2 WSW 5 6 1012.0 - 0.0 - - 10 - - - -
04/12:30am 23.3 WSW 6 7 1012.1 - 0.0 - - 10 - - - -
04/12:00am 22.7 SW 5 7 1012.0 - 0.0 - - 10 - - - -
 
Date/Time
WST
Temp

°C
Wind Pressure Rain
since 9am
mm
Weather Cloud Vis
km
Sea
Height
m
Swell
Dir
 
Speed
knots
Gust
knots
hPa Trend Height
m
Period
s
Dir
03/11:30pm 22.5 SSW 7 8 1012.4 - 0.0 - - 10 - - - -
03/11:00pm 22.8 S 7 8 1012.4 - 0.0 - - 10 - - - -
03/10:30pm 23.0 S 5 7 1012.5 - 0.0 - - 10 - - - -
03/10:00pm 23.6 SW 6 7 1012.6 - 0.0 - - 10 - - - -
03/09:30pm 24.3 SW 6 7 1012.6 - 0.0 - - 10 - - - -
03/09:00pm 24.0 SSW 6 8 1012.4 - 0.0 - - 10 - - - -
03/08:30pm 24.6 S 6 8 1012.6 - 0.0 - - 10 - - - -
03/08:00pm 24.9 S 5 6 1012.5 - 0.0 - Partly cloudy 10 - - - -
03/07:30pm 25.3 N 6 6 1012.0 - 0.0 - Partly cloudy 10 - - - -
03/07:00pm 25.9 NNW 9 12 1011.7 - 0.0 - Partly cloudy 10 - - - -
03/06:30pm 25.9 N 9 11 1011.3 - 0.0 - Partly cloudy 10 - - - -
03/06:00pm 26.2 N 9 10 1010.9 - 0.0 - - 10 - - - -
03/05:30pm 26.7 NNE 9 12 1010.8 - 0.0 - - 10 - - - -
03/05:00pm 27.5 NNE 11 14 1010.6 - 0.0 - - 10 - - - -
03/04:30pm 27.9 NNE 10 11 1010.7 - 0.0 - - 10 - - - -
03/04:00pm 28.2 NNE 10 12 1010.4 - 0.0 - - 10 - - - -
03/03:30pm 27.8 N 11 13 1010.4 - 0.0 - - 10 - - - -
03/03:00pm 28.2 NNE 11 13 1010.4 - 0.0 - - 10 - - - -
03/02:30pm 28.4 NNE 10 13 1011.0 - 0.0 - - 10 - - - -
03/02:00pm 29.2 NE 11 14 1011.1 - 0.0 - - 10 - - - -
03/01:30pm 28.3 NE 11 14 1011.8 - 0.0 - Mostly clear 10 - - - -
03/01:00pm 28.1 NNE 12 15 1012.3 - 0.0 - Mostly clear 10 - - - -
03/12:30pm 27.7 NNE 11 14 1012.3 - 0.0 - Mostly clear 10 - - - -
03/12:00pm 27.6 NNE 11 13 1012.6 - 0.0 - - 10 - - - -
03/11:30am 27.4 NNE 10 14 1012.8 - 0.0 - - 10 - - - -
03/11:00am 27.3 NNE 8 11 1013.3 - 0.0 - - 10 - - - -
03/10:30am 27.0 ENE 6 10 1013.4 - 0.0 - - 10 - - - -
03/10:00am 26.0 ENE 6 8 1013.6 - 0.0 - - 10 - - - -
03/09:30am 26.1 ENE 4 6 1013.6 - 0.0 - - 10 - - - -
03/09:00am 24.9 S 1 4 1013.3 - 0.0 - - 10 - - - -
03/08:30am 23.9 E 1 5 1013.5 - 0.0 - - 10 - - - -
03/08:00am 22.1 SW 5 6 1013.3 - 0.0 - - 10 - - - -
03/07:30am 19.8 SW 4 5 1012.9 - 0.0 - - 10 - - - -
03/07:00am 17.3 SW 5 5 1012.7 - 0.0 - - 10 - - - -
03/06:30am 16.9 SW 4 4 1012.4 - 0.0 - - 10 - - - -
03/06:00am 17.9 SW 5 6 1012.0 - 0.0 - - 10 - - - -
03/05:30am 18.5 WSW 2 4 1012.0 - 0.0 - - 10 - - - -
03/05:00am 18.3 W 2 3 1012.0 - 0.0 - - 10 - - - -
03/04:30am 18.7 WSW 4 5 1011.6 - 0.0 - - 10 - - - -
03/04:00am 18.1 SW 7 8 1011.5 - 0.0 - - 10 - - - -
03/03:30am 18.7 SW 7 8 1011.7 - 0.0 - - 10 - - - -
03/03:00am 19.2 WSW 7 9 1011.7 - 0.0 - - 10 - - - -
03/02:30am 19.3 WSW 7 8 1012.2 - 0.0 - - 10 - - - -
03/02:00am 19.5 WSW 8 9 1012.4 - 0.0 - - 10 - - - -
03/01:30am 19.9 WSW 8 10 1012.6 - 0.0 - - 10 - - - -
03/01:00am 20.5 SW 10 12 1012.8 - 0.0 - - 10 - - - -
03/12:30am 20.4 SW 10 11 1013.0 - 0.0 - - 10 - - - -
03/12:00am 21.0 SW 9 11 1012.9 - 0.0 - - 10 - - - -
 
Date/Time
WST
Temp

°C
Wind Pressure Rain
since 9am
mm
Weather Cloud Vis
km
Sea
Height
m
Swell
Dir
 
Speed
knots
Gust
knots
hPa Trend Height
m
Period
s
Dir
02/11:30pm 21.6 SW 11 13 1013.0 - 0.0 - - 10 - - - -
02/11:00pm 21.9 SW 12 14 1013.0 - 0.0 - - 10 - - - -
02/10:30pm 22.2 SW 12 14 1013.0 - 0.0 - - 10 - - - -
02/10:00pm 22.6 SSW 12 14 1013.0 - 0.0 - - 10 - - - -
02/09:30pm 23.0 SSW 13 16 1013.0 - 0.0 - - 10 - - - -
02/09:00pm 22.0 SSW 6 7 1013.0 - 0.0 - - 10 - - - -
02/08:30pm 22.4 S 8 9 1013.0 - 0.0 - - 10 - - - -
02/08:00pm 23.8 S 4 5 1012.9 - 0.0 - - 10 - - - -
02/07:30pm 24.5 SW 5 5 1012.7 - 0.0 - - 10 - - - -
02/07:00pm 25.6 SSW 6 9 1012.4 - 0.0 - - 10 - - - -
02/06:30pm 26.7 SSW 4 6 1012.0 - 0.0 - - 10 - - - -
02/06:00pm 26.9 N 1 5 1011.7 - 0.0 - - 10 - - - -
02/05:30pm 28.1 N 4 6 1011.6 - 0.0 - - 10 - - - -
02/05:00pm 27.7 N 7 8 1011.3 - 0.0 - - 10 - - - -
02/04:30pm 28.9 N 7 9 1011.3 - 0.0 - - 10 - - - -
02/04:00pm 28.3 N 10 11 1011.1 - 0.0 - - 10 - - - -
02/03:30pm 28.7 N 9 10 1011.4 - 0.0 - - 10 - - - -
02/03:00pm 29.5 NNE 9 10 1011.3 - 0.0 - - 10 - - - -
02/02:30pm 30.2 NE 9 11 1011.4 - 0.0 - - 10 - - - -
02/02:00pm 29.6 ENE 7 9 1011.7 - 0.0 - - 10 - - - -
02/01:30pm 29.7 ENE 8 10 1012.1 - 0.0 - - 10 - - - -
02/01:00pm 29.0 ENE 8 10 1012.6 - 0.0 - - 10 - - - -
02/12:30pm 29.0 E 8 11 1013.0 - 0.0 - - 10 - - - -
02/12:00pm 28.2 E 8 10 1013.2 - 0.0 - - 10 - - - -
02/11:30am 28.3 ESE 7 10 1013.7 - 0.0 - - 10 - - - -
02/11:00am 28.1 ESE 9 13 1014.0 - 0.0 - - 10 - - - -

Other Formats:

Comma delimited format used in spreadsheet applications
http://www.bom.gov.au/fwo/IDW60701/IDW60701.94302.axf

JavaScript Object Notation format (JSON) in row-major order
http://www.bom.gov.au/fwo/IDW60701/IDW60701.94302.json